Brutus, MI

6:47 AM EDT on September 01, 2015 (GMT -0400)
Northwest Burt Lake | | Change Station
CLOSE
Current Station
Personal Weather Station
Location: Brutus, MI
Elevation: 626 ft
Nearby Weather Stations

Elev 626 ft 45.51 °N, 84.70 °W | Updated 3 minutes ago

Clear
Clear
63.2 °F
Feels Like 63.2 °F
N
1.0
Wind Variable Wind from West
Gusts 2.0 mph

Today
High -- | Low -- °F
--% Chance of Precip.
Yesterday
High -- | Low -- °F
Precip. -- in
7:00 AM 8:17 PM
Waning Gibbous, 90% visible
Pressure 30.01 in
Visibility 7.0 miles
Clouds Clear
Dew Point 62 °F
Humidity 97%
Rainfall 0.00 in
Snow Depth Not available.
UV 0 out of 12
Pollen 10.50 out of 12
Air Quality Not available.
Flu Activity Not available.
METAR KPLN 010954Z AUTO 24004KT 7SM CLR 19/18 A3002 RMK AO2 SLP162 T01890178 $
Pressure 30.01 in
Visibility 7.0 miles
Clouds Clear
Dew Point 62 °F
Humidity 97%
Rainfall 0.00 in
Snow Depth Not available.
UV 0 out of 12
Pollen 10.50 out of 12
Air Quality Not available.
Flu Activity Not available.
METAR KPLN 010954Z AUTO 24004KT 7SM CLR 19/18 A3002 RMK AO2 SLP162 T01890178 $
Nowcast | as of 6:00 am EDT on September 1, 2015

At 7 am...clear. Areas of fog. Temperature 65. Southwest winds 6 mph. At 9 am...partly cloudy. Areas of fog. Temperature 68. Southwest winds 6 mph. At 11 am...partly cloudy. Temperature 73. Southwest winds 7 mph. At 1 PM...partly cloudy. Temperature 79. Southwest winds 8 mph.

×

10-Day Weather Forecast

×

Almanac

Astronomy

Sep. 01, 2015 Rise Set
Actual Time
Civil Twilight
Nautical Twilight
Astronomical Twilight
Moon
Length of Visible Light
Length of Day
Tomorrow will be .
, % of the Moon is Illuminated

Today's Extremes

State Highs State Lows

Community

WunderPhotos

Upload Photos

1,851,501 photos uploaded!

WunderBlogs® & News

Nearby

Air Quality

  Air Quality AQ Index Pollutant
Not available.

Snow Depth

Station Depth Elevation

Earthquake Activity

City Distance Mag. Time & Date
Minimum magnitude displayed is 2.5.

Coastal Water Temperatures

Place Temperature

Stations

Nearby Weather Stations

Station Location Temp. Windchill Dew Point Humidity Wind Precip. Elev Updated Type